»·PEaware :: BAW268 KLAX-EGLL

BAW268 :: KLAX-EGLL

FLIGHT INFORMATION

Flight Status: Arrived
Operator:
British Airways
More flights by this operator :: More flights under this callsign
Pilot: Bryan S. (13276)
Aircraft: BOEING 747-400 (WINGLETS)
(B744)
More flights by this aircraft type
Origin: KLAX Los Angeles Intl
United States
Destination: EGLL Heathrow
United Kingdom
More flights between these airports :: More routes between these airports
Route: SEBBY1 DAG DVC J146 GLD J192 PWE BDF OXI DJB ETG FQM LVZ SAX ACK DOVEY 4200N/06000W 4300N/05500W 4400N/05000W 4600N/04000W 4800N/03000W 5000N/02000W DINIM ELSOX EVRIN UL607 NUMPO UP2 BEDEK OCK2F
File this flight plan on PilotEdge
Remarks:
Altitude:
(Current/Filed)
35,000ft
Speed:
(Current/Filed)
488kts
Departed: 02-Feb-17 07:17 AM
Arrived: 02-Feb-17 01:05 PM
Distance/Time
Traveled:
4726nm/5:48
Distance/Time
To Go:
Arrived

Flight Plot

Page will automatically refresh every two minutes.

Flight plan parsing failed; only flown route is shown


Map Options




Map Legend


Flown Route
Filed Route
Departure Airport
Arrival Airport
Navaid (VOR, NDB)
Fix

Horizontal Profiles

Position Reports

Time Latitude Longitude Heading Altitude Ground
Speed
02-Feb-17 07:16 41.226386 -78.016540 80 35324ft 618kts
02-Feb-17 07:17 41.265416 -77.602257 80 35134ft 619kts
02-Feb-17 07:18 41.320680 -76.982138 80 35125ft 610kts
02-Feb-17 07:19 41.297103 -76.084083 93 35115ft 619kts
02-Feb-17 07:20 41.183861 -75.190309 106 35072ft 614kts
02-Feb-17 07:21 41.069744 -74.298715 80 35113ft 617kts
02-Feb-17 07:22 41.137930 -73.391587 84 35096ft 621kts
02-Feb-17 07:23 41.187207 -72.479241 85 35111ft 621kts
02-Feb-17 07:24 41.223724 -71.676101 85 35111ft 620kts
02-Feb-17 07:25 41.232884 -71.447707 86 35111ft 620kts
02-Feb-17 07:26 41.242060 -71.218921 86 35111ft 619kts
02-Feb-17 07:27 41.250129 -70.995730 86 35111ft 618kts
02-Feb-17 07:28 41.258710 -70.766672 87 35110ft 622kts
02-Feb-17 07:29 41.266166 -70.538237 86 35111ft 620kts
02-Feb-17 07:30 41.273368 -70.309061 87 35111ft 620kts
02-Feb-17 07:31 41.270879 -69.729477 97 35111ft 619kts
02-Feb-17 07:32 41.224941 -68.816353 95 35111ft 620kts
02-Feb-17 07:33 41.174290 -67.909631 96 35112ft 605kts
02-Feb-17 07:34 41.119223 -67.029617 93 35109ft 600kts
02-Feb-17 07:35 41.218337 -66.355739 79 35091ft 599kts
02-Feb-17 07:36 41.248466 -66.142024 77 35080ft 590kts
02-Feb-17 07:37 41.280901 -65.928638 77 35038ft 590kts
02-Feb-17 07:38 41.312157 -65.714720 78 34994ft 591kts
02-Feb-17 07:39 41.343893 -65.500491 78 34983ft 591kts
02-Feb-17 07:40 41.373967 -65.285156 78 34977ft 590kts
02-Feb-17 07:41 41.404831 -65.070780 78 34976ft 590kts
02-Feb-17 07:42 41.434490 -64.856201 78 34975ft 589kts
02-Feb-17 07:43 41.464713 -64.640240 78 34974ft 596kts
02-Feb-17 07:44 41.493724 -64.422497 79 34974ft 597kts
02-Feb-17 07:45 41.522809 -64.204011 79 34973ft 593kts
02-Feb-17 07:46 41.550866 -63.988136 79 34973ft 592kts
02-Feb-17 07:47 41.579348 -63.772253 79 34973ft 592kts
02-Feb-17 07:48 41.606658 -63.555944 79 34973ft 592kts
02-Feb-17 07:49 41.634098 -63.338323 79 34973ft 602kts
02-Feb-17 07:50 41.661029 -63.117935 79 34966ft 599kts
02-Feb-17 07:51 41.688228 -62.898327 79 34957ft 600kts
02-Feb-17 07:52 41.714263 -62.678175 80 34953ft 599kts
02-Feb-17 07:53 41.740516 -62.458304 80 34943ft 599kts
02-Feb-17 07:54 41.765467 -62.237172 80 34936ft 599kts
02-Feb-17 07:55 41.790943 -62.017011 80 34934ft 599kts
02-Feb-17 07:56 41.815282 -61.796403 80 34932ft 599kts
02-Feb-17 07:57 41.839837 -61.576543 80 34925ft 596kts
02-Feb-17 07:58 41.862975 -61.356648 81 34915ft 596kts
02-Feb-17 07:59 41.886682 -61.136043 81 34913ft 596kts
02-Feb-17 08:00 41.909216 -60.916100 81 34912ft 596kts
02-Feb-17 08:01 41.931993 -60.696011 81 34912ft 596kts
02-Feb-17 08:02 41.953745 -60.475627 82 34912ft 596kts
02-Feb-17 08:03 41.975323 -60.252884 81 34912ft 603kts
02-Feb-17 08:04 41.997449 -60.028910 79 34911ft 602kts
02-Feb-17 08:05 42.041207 -59.814488 70 34907ft 582kts
02-Feb-17 08:06 42.086863 -59.608167 71 34906ft 585kts
02-Feb-17 08:07 42.133442 -59.398059 71 34905ft 586kts
02-Feb-17 08:08 42.179026 -59.187156 71 34905ft 587kts
02-Feb-17 08:09 42.225111 -58.975845 71 34903ft 586kts
02-Feb-17 08:10 42.269040 -58.768879 72 34902ft 571kts
02-Feb-17 08:11 42.313036 -58.562993 72 34901ft 571kts
02-Feb-17 08:12 42.355851 -58.356505 72 34901ft 571kts
02-Feb-17 08:13 42.398997 -58.150151 72 34900ft 572kts
02-Feb-17 08:14 42.441527 -57.942125 73 34898ft 573kts
02-Feb-17 08:15 42.483996 -57.734587 72 34897ft 572kts
02-Feb-17 08:16 42.525292 -57.526678 73 34895ft 573kts
02-Feb-17 08:17 42.566693 -57.318559 73 34894ft 573kts
02-Feb-17 08:18 42.607733 -57.110141 73 34893ft 573kts
02-Feb-17 08:19 42.648596 -56.900623 73 34892ft 573kts
02-Feb-17 08:20 42.689019 -56.691705 73 34891ft 573kts
02-Feb-17 08:21 42.728794 -56.482242 73 34890ft 573kts
02-Feb-17 08:22 42.758794 -56.325138 74 34888ft 572kts
02-Feb-17 08:23 42.797726 -56.115467 74 34887ft 573kts
02-Feb-17 08:24 42.837212 -55.904548 74 34886ft 574kts
02-Feb-17 08:25 42.875507 -55.693997 74 34884ft 574kts
02-Feb-17 08:26 42.914019 -55.483418 74 34882ft 574kts
02-Feb-17 08:27 42.951619 -55.272213 74 34881ft 574kts
02-Feb-17 08:28 42.989315 -55.060269 74 34879ft 574kts
02-Feb-17 08:29 43.033100 -54.851152 71 34877ft 573kts
02-Feb-17 08:30 43.078892 -54.644530 71 34843ft 557kts
02-Feb-17 08:31 43.124065 -54.441282 71 34830ft 560kts
02-Feb-17 08:32 43.168469 -54.237063 72 34820ft 560kts
02-Feb-17 08:33 43.213019 -54.032156 71 34818ft 560kts
02-Feb-17 08:34 43.256808 -53.827422 72 34817ft 560kts
02-Feb-17 08:35 43.300304 -53.622424 71 34816ft 560kts
02-Feb-17 08:36 43.342810 -53.420787 72 34816ft 561kts
02-Feb-17 08:37 43.385287 -53.215074 72 34816ft 561kts
02-Feb-17 08:38 43.428260 -53.008611 73 34816ft 561kts
02-Feb-17 08:39 43.469708 -52.803369 73 34816ft 558kts
02-Feb-17 08:40 43.511358 -52.598705 73 34816ft 549kts
02-Feb-17 08:41 43.551357 -52.395463 73 34816ft 550kts
02-Feb-17 08:42 43.592013 -52.192203 73 34808ft 550kts
02-Feb-17 08:43 43.631649 -51.988047 73 34798ft 550kts
02-Feb-17 08:44 43.670834 -51.787678 73 34788ft 550kts
02-Feb-17 08:45 43.709725 -51.583516 74 34783ft 550kts
02-Feb-17 08:48 43.807849 -51.061908 74 34757ft 549kts
02-Feb-17 08:49 43.845994 -50.857452 74 34747ft 549kts
02-Feb-17 08:50 43.911387 -50.495879 74 34735ft 556kts
02-Feb-17 08:51 44.068421 -49.713710 65 34725ft 562kts
02-Feb-17 08:52 44.121413 -49.510031 67 34724ft 559kts
02-Feb-17 08:53 44.171943 -49.305739 68 34722ft 559kts
02-Feb-17 08:54 44.221362 -49.100653 68 34720ft 559kts
02-Feb-17 08:55 44.271240 -48.895830 68 34718ft 559kts
02-Feb-17 08:56 44.319942 -48.689892 68 34716ft 559kts
02-Feb-17 08:57 44.369284 -48.483533 68 34715ft 559kts
02-Feb-17 08:58 44.417392 -48.277350 69 34714ft 559kts
02-Feb-17 08:59 44.457799 -48.105455 68 34713ft 559kts
02-Feb-17 09:00 44.505152 -47.898572 69 34712ft 559kts
02-Feb-17 09:01 44.560011 -47.656877 69 34711ft 559kts
02-Feb-17 09:02 44.606829 -47.448584 69 34710ft 559kts
02-Feb-17 09:03 44.653588 -47.240925 69 34709ft 559kts
02-Feb-17 09:04 44.699673 -47.031902 69 34709ft 559kts
02-Feb-17 09:05 44.737568 -46.857945 69 34707ft 559kts
02-Feb-17 09:06 44.783218 -46.649665 70 34705ft 558kts
02-Feb-17 09:07 44.827835 -46.440556 70 34704ft 558kts
02-Feb-17 09:08 44.872975 -46.231655 70 34705ft 559kts
02-Feb-17 09:09 44.916882 -46.021184 71 34705ft 559kts
02-Feb-17 09:10 44.961147 -45.811441 71 34705ft 558kts
02-Feb-17 09:11 45.004171 -45.601025 71 34710ft 558kts
02-Feb-17 09:12 45.055042 -45.354955 71 34722ft 560kts
02-Feb-17 09:13 45.090161 -45.179507 71 34730ft 554kts
02-Feb-17 09:14 45.132695 -44.968573 71 34727ft 555kts
02-Feb-17 09:15 45.174039 -44.758316 72 34712ft 555kts
02-Feb-17 09:16 45.215407 -44.547743 71 34702ft 555kts
02-Feb-17 09:17 45.256450 -44.336856 72 34699ft 555kts
02-Feb-17 09:18 45.296887 -44.125016 71 34698ft 555kts
02-Feb-17 09:19 45.337181 -43.913354 72 34698ft 559kts
02-Feb-17 09:20 45.376860 -43.699090 72 34698ft 561kts
02-Feb-17 09:21 45.416937 -43.485327 72 34698ft 554kts
02-Feb-17 09:22 45.455671 -43.272757 72 34661ft 556kts
02-Feb-17 09:23 45.494801 -43.059280 72 34650ft 556kts
02-Feb-17 09:24 45.532206 -42.845523 73 34640ft 557kts
02-Feb-17 09:25 45.570356 -42.632094 73 34630ft 557kts
02-Feb-17 09:26 45.607535 -42.417867 73 34623ft 557kts
02-Feb-17 09:27 45.644964 -42.203575 73 34617ft 557kts
02-Feb-17 09:28 45.680951 -41.990766 73 34612ft 557kts
02-Feb-17 09:29 45.717360 -41.775823 73 34606ft 557kts
02-Feb-17 09:30 45.753020 -41.560338 74 34601ft 557kts
02-Feb-17 09:31 45.788770 -41.344744 73 34595ft 557kts
02-Feb-17 09:32 45.823972 -41.127898 74 34589ft 557kts
02-Feb-17 09:33 45.858261 -40.911609 73 34583ft 559kts
02-Feb-17 09:34 45.893259 -40.692343 74 34577ft 564kts
02-Feb-17 09:35 45.926773 -40.475756 74 34571ft 565kts
02-Feb-17 09:36 45.961161 -40.255774 74 34564ft 565kts
02-Feb-17 09:37 45.985303 -40.096861 74 34559ft 565kts
02-Feb-17 09:38 46.029068 -39.881292 65 34553ft 561kts
02-Feb-17 09:39 46.081892 -39.670469 66 34546ft 561kts
02-Feb-17 09:40 46.134376 -39.459320 65 34540ft 561kts
02-Feb-17 09:41 46.186524 -39.247253 66 34533ft 562kts
02-Feb-17 09:42 46.238107 -39.034167 65 34526ft 561kts
02-Feb-17 09:43 46.289321 -38.821964 67 34521ft 562kts
02-Feb-17 09:44 46.339738 -38.608199 66 34515ft 562kts
02-Feb-17 09:45 46.390851 -38.394888 67 34510ft 562kts
02-Feb-17 09:46 46.432070 -38.217377 68 34505ft 558kts
02-Feb-17 09:47 46.481898 -38.004221 68 34499ft 559kts
02-Feb-17 09:48 46.530237 -37.789937 68 34494ft 560kts
02-Feb-17 09:49 46.579201 -37.575678 68 34488ft 560kts
02-Feb-17 09:50 46.627460 -37.360732 68 34445ft 560kts
02-Feb-17 09:51 46.675824 -37.144914 68 34435ft 560kts
02-Feb-17 09:52 46.723142 -36.929078 69 34424ft 560kts
02-Feb-17 09:53 46.770339 -36.712922 68 34419ft 560kts
02-Feb-17 09:54 46.817035 -36.496198 69 34417ft 561kts
02-Feb-17 09:55 46.863549 -36.279178 68 34416ft 560kts
02-Feb-17 09:56 46.909873 -36.061145 69 34414ft 561kts
02-Feb-17 09:57 46.954920 -35.843062 69 34413ft 561kts
02-Feb-17 09:58 47.000517 -35.624962 70 34412ft 561kts
02-Feb-17 09:59 47.045007 -35.406135 70 34410ft 561kts
02-Feb-17 10:00 47.090116 -35.186430 70 34409ft 561kts
02-Feb-17 10:01 47.133542 -34.966714 70 34408ft 562kts
02-Feb-17 10:02 47.177333 -34.747689 71 34408ft 559kts
02-Feb-17 10:03 47.219786 -34.528128 71 34406ft 559kts
02-Feb-17 10:04 47.263052 -34.308588 71 34406ft 559kts
02-Feb-17 10:05 47.304880 -34.087679 72 34407ft 559kts
02-Feb-17 10:06 47.346764 -33.867300 71 34406ft 559kts
02-Feb-17 10:07 47.387773 -33.646173 72 34405ft 560kts
02-Feb-17 10:08 47.428866 -33.425113 71 34405ft 559kts
02-Feb-17 10:09 47.469371 -33.203409 72 34405ft 560kts
02-Feb-17 10:10 47.509112 -32.980555 72 34405ft 560kts
02-Feb-17 10:11 47.548611 -32.758142 73 34404ft 560kts
02-Feb-17 10:12 47.587239 -32.535281 72 34403ft 560kts
02-Feb-17 10:13 47.626738 -32.312665 73 34403ft 560kts
02-Feb-17 10:14 47.664682 -32.088205 73 34403ft 560kts
02-Feb-17 10:15 47.702947 -31.864743 73 34403ft 560kts
02-Feb-17 10:16 47.739894 -31.640542 73 34401ft 560kts
02-Feb-17 10:17 47.777547 -31.416282 73 34401ft 560kts
02-Feb-17 10:18 47.813753 -31.191589 74 34401ft 560kts
02-Feb-17 10:19 47.850121 -30.967421 74 34411ft 548kts
02-Feb-17 10:20 47.884876 -30.745492 74 34422ft 551kts
02-Feb-17 10:21 47.919818 -30.523437 74 34432ft 551kts
02-Feb-17 10:22 47.954202 -30.301212 75 34438ft 551kts
02-Feb-17 10:23 47.988053 -30.078637 75 34442ft 551kts
02-Feb-17 10:24 48.034326 -29.861441 66 34450ft 547kts
02-Feb-17 10:25 48.087313 -29.648743 66 34461ft 547kts
02-Feb-17 10:26 48.140364 -29.435824 66 34465ft 547kts
02-Feb-17 10:27 48.192836 -29.222297 67 34466ft 547kts
02-Feb-17 10:28 48.244727 -29.007574 66 34466ft 547kts
02-Feb-17 10:29 48.296492 -28.793285 67 34466ft 547kts
02-Feb-17 10:30 48.347134 -28.578127 67 34465ft 547kts
02-Feb-17 10:31 48.398707 -28.363449 67 34464ft 547kts
02-Feb-17 10:32 48.448571 -28.147652 68 34462ft 547kts
02-Feb-17 10:33 48.499121 -27.931050 68 34460ft 547kts
02-Feb-17 10:34 48.547909 -27.714109 68 34456ft 547kts
02-Feb-17 10:35 48.597344 -27.497374 68 34453ft 547kts
02-Feb-17 10:36 48.646104 -27.279958 68 34449ft 547kts
02-Feb-17 10:37 48.694625 -27.062181 68 34444ft 547kts
02-Feb-17 10:38 48.742488 -26.843182 69 34438ft 547kts
02-Feb-17 10:39 48.789840 -26.624202 68 34433ft 547kts
02-Feb-17 10:40 48.837419 -26.405337 69 34426ft 547kts
02-Feb-17 10:41 48.883727 -26.185541 69 34420ft 547kts
02-Feb-17 10:42 48.930390 -25.966275 69 34413ft 543kts
02-Feb-17 10:43 48.974833 -25.750340 72 34407ft 527kts
02-Feb-17 10:44 49.019210 -25.536883 72 34400ft 529kts
02-Feb-17 10:45 49.062680 -25.322986 72 34394ft 529kts
02-Feb-17 10:46 49.106155 -25.109053 72 34387ft 529kts
02-Feb-17 10:47 49.148657 -24.894258 72 34381ft 529kts
02-Feb-17 10:48 49.191052 -24.678581 72 34376ft 529kts
02-Feb-17 10:49 49.233186 -24.463090 72 34370ft 530kts
02-Feb-17 10:50 49.274615 -24.247283 73 34366ft 529kts
02-Feb-17 10:51 49.316316 -24.031380 73 34361ft 529kts
02-Feb-17 10:52 49.356556 -23.814722 73 34357ft 529kts
02-Feb-17 10:53 49.397445 -23.597564 73 34355ft 529kts
02-Feb-17 10:54 49.437277 -23.380240 73 34351ft 529kts
02-Feb-17 10:55 49.477145 -23.162794 73 34349ft 529kts
02-Feb-17 10:56 49.515874 -22.944797 74 34347ft 529kts
02-Feb-17 10:57 49.554347 -22.725880 73 34345ft 529kts
02-Feb-17 10:58 49.592837 -22.507672 74 34344ft 529kts
02-Feb-17 10:59 49.630562 -22.288801 74 34111ft 529kts
02-Feb-17 11:00 49.668507 -22.070150 74 34100ft 529kts
02-Feb-17 11:01 49.705081 -21.850625 75 34091ft 529kts
02-Feb-17 11:02 49.742212 -21.630358 75 34089ft 529kts
02-Feb-17 11:03 49.778314 -21.410361 75 34088ft 529kts
02-Feb-17 11:04 49.814418 -21.190148 75 34087ft 529kts
02-Feb-17 11:05 49.849654 -20.969397 75 34085ft 529kts
02-Feb-17 11:06 49.884317 -20.748269 75 34084ft 529kts
02-Feb-17 11:07 49.919319 -20.526362 76 34082ft 529kts
02-Feb-17 11:08 49.953491 -20.304790 76 34079ft 529kts
02-Feb-17 11:09 49.987323 -20.082952 76 34076ft 529kts
02-Feb-17 11:10 50.030115 -19.864922 69 34073ft 528kts
02-Feb-17 11:11 50.078051 -19.648412 70 34067ft 528kts
02-Feb-17 11:12 50.126023 -19.432330 69 34062ft 528kts
02-Feb-17 11:13 50.173577 -19.216029 70 34055ft 528kts
02-Feb-17 11:14 50.219993 -18.998853 70 34049ft 528kts
02-Feb-17 11:15 50.267053 -18.781750 71 34041ft 528kts
02-Feb-17 11:16 50.312797 -18.563112 71 34033ft 529kts
02-Feb-17 11:17 50.359419 -18.345391 71 34025ft 529kts
02-Feb-17 11:18 50.404335 -18.126491 71 34016ft 529kts
02-Feb-17 11:19 50.449502 -17.907436 71 34023ft 529kts
02-Feb-17 11:20 50.493755 -17.687876 71 34017ft 529kts
02-Feb-17 11:21 50.537668 -17.466914 70 34006ft 528kts
02-Feb-17 11:22 50.581771 -17.246915 72 33996ft 529kts
02-Feb-17 11:23 50.624555 -17.025795 72 33986ft 528kts
02-Feb-17 11:24 50.667448 -16.808037 73 33772ft 510kts
02-Feb-17 11:25 50.708167 -16.592316 74 33762ft 513kts
02-Feb-17 11:26 50.749925 -16.376190 74 33753ft 513kts
02-Feb-17 11:27 50.790058 -16.160244 74 33752ft 513kts
02-Feb-17 11:28 50.830106 -15.944084 74 33751ft 513kts
02-Feb-17 11:29 50.869771 -15.727359 74 33750ft 513kts
02-Feb-17 11:30 50.908714 -15.510064 75 33749ft 507kts
02-Feb-17 11:31 50.946940 -15.296891 76 33749ft 504kts
02-Feb-17 11:32 50.984913 -15.083590 75 33749ft 503kts
02-Feb-17 11:33 51.000202 -14.865312 91 33749ft 498kts
02-Feb-17 11:34 51.000355 -14.645840 92 33749ft 498kts
02-Feb-17 11:35 51.000304 -14.425737 92 33749ft 498kts
02-Feb-17 11:36 51.000002 -14.206203 92 33749ft 498kts
02-Feb-17 11:37 51.005533 -13.987063 83 33750ft 501kts
02-Feb-17 11:38 51.031371 -13.769718 80 33749ft 502kts
02-Feb-17 11:39 51.060104 -13.552947 80 33749ft 502kts
02-Feb-17 11:40 51.090009 -13.335522 79 33749ft 502kts
02-Feb-17 11:41 51.118306 -13.118444 80 33749ft 502kts
02-Feb-17 11:42 51.146312 -12.901038 79 33749ft 502kts
02-Feb-17 11:43 51.174322 -12.683618 80 33749ft 502kts
02-Feb-17 11:44 51.201277 -12.464905 80 33749ft 502kts
02-Feb-17 11:45 51.229245 -12.247181 80 33749ft 502kts
02-Feb-17 11:46 51.255325 -12.028828 81 33749ft 502kts
02-Feb-17 11:47 51.281696 -11.810282 80 33749ft 502kts
02-Feb-17 11:48 51.307273 -11.591584 81 33749ft 502kts
02-Feb-17 11:49 51.332494 -11.371870 81 33749ft 502kts
02-Feb-17 11:50 51.358125 -11.152975 81 33755ft 501kts
02-Feb-17 11:51 51.381786 -10.933511 81 33771ft 501kts
02-Feb-17 11:52 51.406472 -10.714196 81 33770ft 501kts
02-Feb-17 11:53 51.430264 -10.494207 82 33772ft 499kts
02-Feb-17 11:54 51.453541 -10.275886 81 33769ft 497kts
02-Feb-17 11:55 51.476364 -10.058301 83 33774ft 496kts
02-Feb-17 11:56 51.497729 -9.840752 83 33771ft 492kts
02-Feb-17 11:57 51.519810 -9.624306 83 33772ft 492kts
02-Feb-17 11:58 51.540717 -9.406838 83 33779ft 491kts
02-Feb-17 11:59 51.562086 -9.189487 84 33783ft 498kts
02-Feb-17 12:00 51.582709 -8.968500 84 33790ft 500kts
02-Feb-17 12:01 51.602524 -8.747321 84 33798ft 500kts
02-Feb-17 12:02 51.623116 -8.525544 85 33803ft 500kts
02-Feb-17 12:03 51.642566 -8.304357 85 33805ft 500kts
02-Feb-17 12:04 51.662119 -8.082826 85 33805ft 500kts
02-Feb-17 12:05 51.680489 -7.861290 85 33803ft 500kts
02-Feb-17 12:06 51.698578 -7.639467 84 33799ft 500kts
02-Feb-17 12:07 51.715090 -7.441376 86 33800ft 500kts
02-Feb-17 12:08 51.732140 -7.222206 86 33810ft 500kts
02-Feb-17 12:09 51.749648 -6.999887 86 33821ft 500kts
02-Feb-17 12:10 51.766171 -6.777512 86 33826ft 500kts
02-Feb-17 12:11 51.780805 -6.555076 93 33849ft 496kts
02-Feb-17 12:12 51.772920 -6.333680 98 33873ft 493kts
02-Feb-17 12:13 51.763317 -6.113464 98 33945ft 493kts
02-Feb-17 12:14 51.754282 -5.894762 99 33994ft 485kts
02-Feb-17 12:15 51.744331 -5.678243 99 34064ft 485kts
02-Feb-17 12:16 51.734253 -5.462325 99 34075ft 483kts
02-Feb-17 12:17 51.724161 -5.245725 100 34082ft 483kts
02-Feb-17 12:18 51.712767 -5.030796 100 34083ft 481kts
02-Feb-17 12:19 51.700988 -4.817038 101 34085ft 477kts
02-Feb-17 12:20 51.689706 -4.603465 100 34107ft 484kts
02-Feb-17 12:21 51.677349 -4.385156 100 34120ft 486kts
02-Feb-17 12:22 51.664498 -4.168498 100 34146ft 485kts
02-Feb-17 12:23 51.651795 -3.956387 101 34174ft 474kts
02-Feb-17 12:24 51.639218 -3.745135 102 34191ft 475kts
02-Feb-17 12:25 51.626189 -3.543596 102 34002ft 473kts
02-Feb-17 12:26 51.613273 -3.335998 100 32779ft 459kts
02-Feb-17 12:27 51.591200 -3.139037 108 31513ft 440kts
02-Feb-17 12:28 51.565451 -2.951344 108 29438ft 421kts
02-Feb-17 12:29 51.541061 -2.772481 111 27860ft 390kts
02-Feb-17 12:30 51.519607 -2.611238 114 27831ft 382kts
02-Feb-17 12:31 51.496696 -2.445103 114 26405ft 368kts
02-Feb-17 12:32 51.474724 -2.287019 113 24217ft 359kts
02-Feb-17 12:33 51.453236 -2.133165 113 22094ft 350kts
02-Feb-17 12:34 51.431960 -1.982447 113 19887ft 344kts
02-Feb-17 12:35 51.410491 -1.834729 113 17889ft 335kts
02-Feb-17 12:36 51.389870 -1.692080 113 16002ft 323kts
02-Feb-17 12:37 51.370047 -1.554393 114 13880ft 320kts
02-Feb-17 12:38 51.350550 -1.422242 114 13557ft 301kts
02-Feb-17 12:39 51.330956 -1.291100 114 13583ft 305kts
02-Feb-17 12:40 51.314752 -1.163698 106 12988ft 293kts
02-Feb-17 12:41 51.311833 -1.034141 102 11989ft 293kts
02-Feb-17 12:42 51.311027 -0.904319 101 10988ft 286kts
02-Feb-17 12:43 51.310828 -0.777249 101 10439ft 289kts
02-Feb-17 12:44 51.308354 -0.645795 101 10445ft 298kts
02-Feb-17 12:45 51.306082 -0.515190 101 10437ft 290kts
02-Feb-17 12:46 51.305250 -0.387393 95 10563ft 294kts
02-Feb-17 12:47 51.297403 -0.277765 142 10003ft 237kts
02-Feb-17 12:48 51.247427 -0.219993 184 9994ft 209kts
02-Feb-17 12:49 51.218197 -0.289776 270 9347ft 245kts
02-Feb-17 12:50 51.249254 -0.384077 310 8990ft 277kts
02-Feb-17 12:51 51.299191 -0.440791 315 8985ft 283kts
02-Feb-17 12:52 51.373461 -0.435048 52 8956ft 302kts
02-Feb-17 12:53 51.364337 -0.336248 151 8373ft 226kts
02-Feb-17 12:54 51.314284 -0.279663 155 7979ft 221kts
02-Feb-17 12:55 51.262602 -0.239569 201 7970ft 199kts
02-Feb-17 12:56 51.232994 -0.314604 266 7941ft 233kts
02-Feb-17 12:57 51.268119 -0.390493 302 8002ft 262kts
02-Feb-17 12:58 51.338269 -0.400532 40 7036ft 269kts
02-Feb-17 12:59 51.364350 -0.307923 94 6989ft 223kts
02-Feb-17 13:00 51.369866 -0.208923 97 6078ft 225kts
02-Feb-17 13:01 51.403057 -0.124878 18 4108ft 256kts
02-Feb-17 13:02 51.466428 -0.139895 315 2962ft 200kts
02-Feb-17 13:03 51.478968 -0.213892 264 2736ft 170kts
02-Feb-17 13:04 51.478218 -0.280862 263 1935ft 158kts
02-Feb-17 13:05 51.478016 -0.321836 264 1439ft 0kts
02-Feb-17 13:06 51.478016 -0.321836 264 1439ft 0kts
02-Feb-17 13:07 51.477810 -0.368140 263 914ft 146kts
02-Feb-17 13:08 51.477648 -0.438315 266 96ft 149kts
02-Feb-17 13:09 51.477544 -0.464353 270 92ft 51kts
02-Feb-17 13:10 51.475658 -0.469178 185 92ft 8kts
02-Feb-17 13:11 51.474888 -0.470737 266 92ft 11kts
02-Feb-17 13:12 51.474865 -0.473641 266 92ft 0kts
02-Feb-17 13:13 51.474809 -0.478654 240 92ft 5kts
02-Feb-17 13:14 51.473247 -0.478791 170 92ft 1kts
02-Feb-17 13:15 51.471773 -0.478772 180 92ft 5kts
02-Feb-17 13:16 51.470366 -0.479079 252 92ft 2kts
02-Feb-17 13:17 51.470478 -0.480033 271 92ft 0kts
02-Feb-17 13:18 51.469102 -0.478156 90 92ft 8kts
02-Feb-17 13:19 51.469103 -0.477261 90 92ft 1kts

Navigation Log

Ident Type
Flight plan parsing failed, navigation log unavailable